Time;durP1;ratioP1;P1;durP2;ratioP2;P2;SDS_P1;SDS_P2;PMS_P1;PMS_P2;Temp;Humidity;BMP_temperature;BMP_pressure;BME280_temperature;BME280_humidity;BME280_pressure;Samples;Min_cycle;Max_cycle;Signal;HPM_P1;HPM_P2
2021/10/08 00:01:43;;;;;;;6.25;3.05;;;;;;;;;;4897945;29;20036;-82
2021/10/08 00:04:08;;;;;;;4.25;2.85;;;;;;;;;;4899222;29;20092;-82
2021/10/08 00:06:34;;;;;;;3.42;2.65;;;;;;;;;;4901666;29;20044;-81
2021/10/08 00:08:59;;;;;;;6.57;2.90;;;;;;;;;;4919218;29;20088;-82
2021/10/08 00:11:25;;;;;;;4.40;2.80;;;;;;;;;;4918728;29;20397;-82
2021/10/08 00:13:51;;;;;;;6.53;3.05;;;;;;;;;;4902516;29;20039;-82
2021/10/08 00:16:17;;;;;;;4.05;2.83;;;;;;;;;;4900996;29;20032;-81
2021/10/08 00:18:42;;;;;;;2.85;2.58;;;;;;;;;;4899987;29;20441;-81
2021/10/08 00:21:09;;;;;;;3.97;2.95;;;;;;;;;;4916838;29;20047;-81
2021/10/08 00:23:34;;;;;;;5.45;2.60;;;;;;;;;;4917491;29;20039;-81
2021/10/08 00:26:00;;;;;;;4.57;2.65;;;;;;;;;;4917450;29;20407;-82
2021/10/08 00:28:26;;;;;;;3.78;2.47;;;;;;;;;;4900541;29;20036;-81
2021/10/08 00:30:51;;;;;;;4.57;2.60;;;;;;;;;;4917788;29;20036;-81
2021/10/08 00:33:17;;;;;;;4.32;2.55;;;;;;;;;;4917576;29;20031;-82
2021/10/08 00:35:43;;;;;;;3.72;2.35;;;;;;;;;;4900874;29;20111;-82
2021/10/08 00:38:09;;;;;;;4.53;2.20;;;;;;;;;;4918539;29;20028;-82
2021/10/08 00:40:36;;;;;;;3.63;2.35;;;;;;;;;;4918169;29;20099;-82
2021/10/08 00:43:03;;;;;;;3.78;2.47;;;;;;;;;;4901150;29;20032;-82
2021/10/08 00:45:29;;;;;;;5.40;2.45;;;;;;;;;;4900913;29;20024;-82
2021/10/08 00:47:57;;;;;;;3.10;2.70;;;;;;;;;;4917979;29;20032;-81
2021/10/08 00:50:22;;;;;;;3.03;2.30;;;;;;;;;;4918028;29;20096;-82
2021/10/08 00:52:47;;;;;;;4.63;2.63;;;;;;;;;;4901333;29;20064;-82
2021/10/08 00:55:13;;;;;;;3.53;2.63;;;;;;;;;;4901954;29;20032;-82
2021/10/08 00:57:38;;;;;;;3.40;2.10;;;;;;;;;;4919949;29;20107;-82
2021/10/08 01:00:04;;;;;;;4.43;2.30;;;;;;;;;;4921065;29;20028;-82
2021/10/08 01:02:30;;;;;;;3.88;2.33;;;;;;;;;;4920815;29;20428;-81
2021/10/08 01:04:56;;;;;;;3.80;1.85;;;;;;;;;;4920858;29;20027;-82
2021/10/08 01:07:24;;;;;;;3.70;2.38;;;;;;;;;;4903864;29;20056;-81
2021/10/08 01:09:49;;;;;;;3.53;2.40;;;;;;;;;;4920429;29;20456;-81
2021/10/08 01:12:15;;;;;;;7.40;2.67;;;;;;;;;;4920805;29;20059;-81
2021/10/08 01:14:40;;;;;;;5.50;2.45;;;;;;;;;;4920976;29;20180;-81
2021/10/08 01:17:16;;;;;;;2.47;2.20;;;;;;;;;;4920685;29;20497;-81
2021/10/08 01:19:42;;;;;;;3.25;2.40;;;;;;;;;;4921268;29;20032;-81
2021/10/08 01:22:08;;;;;;;4.93;2.70;;;;;;;;;;4920636;29;20028;-81
2021/10/08 01:24:33;;;;;;;4.95;2.50;;;;;;;;;;4903942;29;20032;-82
2021/10/08 01:27:06;;;;;;;4.72;2.70;;;;;;;;;;4903799;29;20035;-81
2021/10/08 01:29:33;;;;;;;3.55;2.30;;;;;;;;;;4903794;29;20039;-81
2021/10/08 01:31:59;;;;;;;4.20;2.53;;;;;;;;;;4920621;29;21477;-82
2021/10/08 01:34:24;;;;;;;4.00;2.40;;;;;;;;;;4920582;29;20552;-81
2021/10/08 01:36:50;;;;;;;2.80;2.30;;;;;;;;;;4920877;29;20028;-82
2021/10/08 01:39:15;;;;;;;3.65;2.33;;;;;;;;;;4910706;29;20031;-81
2021/10/08 01:41:41;;;;;;;6.18;2.33;;;;;;;;;;4938829;29;20083;-81
2021/10/08 01:44:06;;;;;;;3.78;2.33;;;;;;;;;;4939616;29;20398;-82
2021/10/08 01:46:32;;;;;;;3.72;2.13;;;;;;;;;;4921936;29;20044;-82
2021/10/08 01:48:57;;;;;;;4.53;2.67;;;;;;;;;;4939248;29;20108;-81
2021/10/08 01:51:23;;;;;;;3.83;2.53;;;;;;;;;;4921716;29;20485;-81
2021/10/08 01:53:48;;;;;;;4.10;2.40;;;;;;;;;;4921093;29;20063;-82
2021/10/08 01:56:14;;;;;;;3.30;2.55;;;;;;;;;;4939467;29;20507;-82
2021/10/08 01:58:39;;;;;;;4.07;2.70;;;;;;;;;;4921967;29;20032;-82
2021/10/08 02:01:04;;;;;;;5.32;2.70;;;;;;;;;;4938525;29;20060;-81
2021/10/08 02:03:30;;;;;;;3.85;2.50;;;;;;;;;;4921812;29;20067;-81
2021/10/08 02:05:55;;;;;;;4.25;2.35;;;;;;;;;;4938737;29;20039;-82
2021/10/08 02:08:21;;;;;;;5.05;2.50;;;;;;;;;;4937868;29;20531;-82
2021/10/08 02:10:46;;;;;;;2.97;2.67;;;;;;;;;;4938651;29;20031;-82
2021/10/08 02:13:12;;;;;;;2.85;2.38;;;;;;;;;;4938865;29;20032;-82
2021/10/08 02:15:37;;;;;;;2.80;2.50;;;;;;;;;;4922189;29;20032;-82
2021/10/08 02:18:03;;;;;;;3.47;2.72;;;;;;;;;;4938552;29;20028;-82
2021/10/08 02:20:29;;;;;;;4.35;2.70;;;;;;;;;;4921821;29;20037;-82
2021/10/08 02:22:54;;;;;;;4.10;2.63;;;;;;;;;;4921298;29;20046;-81
2021/10/08 02:25:20;;;;;;;4.90;2.40;;;;;;;;;;4938848;29;20032;-81
2021/10/08 02:27:45;;;;;;;4.78;2.28;;;;;;;;;;4938532;29;20052;-81
2021/10/08 02:30:12;;;;;;;3.13;2.47;;;;;;;;;;4921483;29;20528;-82
2021/10/08 02:32:37;;;;;;;3.60;2.65;;;;;;;;;;4938356;29;20035;-82
2021/10/08 02:35:03;;;;;;;4.05;2.08;;;;;;;;;;4921052;29;20052;-81
2021/10/08 02:37:29;;;;;;;3.42;2.63;;;;;;;;;;4938320;29;20024;-81
2021/10/08 02:39:54;;;;;;;5.13;2.28;;;;;;;;;;4938650;29;20031;-81
2021/10/08 02:42:20;;;;;;;3.70;2.70;;;;;;;;;;4938614;29;20032;-81
2021/10/08 02:44:45;;;;;;;4.93;2.60;;;;;;;;;;4938779;29;20063;-82
2021/10/08 02:47:11;;;;;;;2.75;2.30;;;;;;;;;;4923492;29;20052;-82
2021/10/08 02:49:36;;;;;;;6.00;2.78;;;;;;;;;;4919037;29;20079;-81
2021/10/08 02:52:03;;;;;;;4.10;2.60;;;;;;;;;;4901868;29;20058;-81
2021/10/08 02:54:29;;;;;;;4.35;2.63;;;;;;;;;;4901885;29;20497;-81
2021/10/08 02:56:54;;;;;;;3.72;2.70;;;;;;;;;;4901886;29;20032;-81
2021/10/08 02:59:20;;;;;;;5.35;2.70;;;;;;;;;;4919119;29;20028;-81
2021/10/08 03:01:45;;;;;;;4.65;2.50;;;;;;;;;;4902993;29;20031;-81
2021/10/08 03:04:11;;;;;;;3.10;2.42;;;;;;;;;;4902384;29;20032;-81
2021/10/08 03:06:36;;;;;;;4.93;2.70;;;;;;;;;;4901706;29;20400;-82
2021/10/08 03:09:02;;;;;;;5.05;2.97;;;;;;;;;;4901481;29;20032;-82
2021/10/08 03:11:28;;;;;;;4.25;3.28;;;;;;;;;;4902080;29;20028;-82
2021/10/08 03:13:53;;;;;;;7.60;3.85;;;;;;;;;;4918811;29;20028;-82
2021/10/08 03:16:19;;;;;;;4.57;3.28;;;;;;;;;;4901910;29;20405;-82
2021/10/08 03:18:45;;;;;;;5.63;3.45;;;;;;;;;;4901084;29;20055;-81
2021/10/08 03:21:10;;;;;;;4.53;3.40;;;;;;;;;;4917790;29;20091;-81
2021/10/08 03:23:36;;;;;;;3.40;3.08;;;;;;;;;;4901970;29;20028;-81
2021/10/08 03:26:01;;;;;;;6.18;3.20;;;;;;;;;;4918506;29;20036;-81
2021/10/08 03:28:27;;;;;;;3.22;2.80;;;;;;;;;;4918688;29;20465;-82
2021/10/08 03:30:52;;;;;;;5.65;2.70;;;;;;;;;;4918061;29;20111;-81
2021/10/08 03:33:18;;;;;;;4.38;2.80;;;;;;;;;;4901170;29;20111;-82
2021/10/08 03:35:43;;;;;;;3.28;2.75;;;;;;;;;;4901264;29;20139;-81
2021/10/08 03:38:17;;;;;;;3.72;2.90;;;;;;;;;;4901043;29;20553;-82
2021/10/08 03:40:48;;;;;;;7.93;3.13;;;;;;;;;;4901717;29;20047;-81
2021/10/08 03:43:15;;;;;;;;;;;;;;;;;;4918770;29;20036;-81
2021/10/08 03:45:49;;;;;;;4.47;2.58;;;;;;;;;;4901050;29;19930;-82
2021/10/08 03:48:35;;;;;;;4.47;3.00;;;;;;;;;;4918188;29;20035;-81
2021/10/08 03:51:02;;;;;;;3.75;2.80;;;;;;;;;;4918071;29;20055;-81
2021/10/08 03:53:28;;;;;;;5.72;2.70;;;;;;;;;;4918050;29;20028;-82
2021/10/08 03:55:53;;;;;;;4.55;2.72;;;;;;;;;;4918602;29;20043;-82
2021/10/08 03:58:19;;;;;;;5.10;3.63;;;;;;;;;;4919489;29;20041;-81
2021/10/08 04:00:44;;;;;;;5.35;3.70;;;;;;;;;;4918808;29;20079;-82
2021/10/08 04:03:10;;;;;;;6.03;3.78;;;;;;;;;;4901099;29;20051;-82
2021/10/08 04:05:35;;;;;;;4.05;3.60;;;;;;;;;;4919356;29;20404;-82
2021/10/08 04:08:01;;;;;;;5.70;3.95;;;;;;;;;;4901440;29;20051;-82
2021/10/08 04:10:26;;;;;;;4.97;4.05;;;;;;;;;;4900984;29;20032;-82
2021/10/08 04:12:52;;;;;;;4.47;3.65;;;;;;;;;;4918242;29;20039;-81
2021/10/08 04:15:17;;;;;;;5.10;3.67;;;;;;;;;;4901005;29;20503;-82
2021/10/08 04:17:43;;;;;;;5.90;3.67;;;;;;;;;;4918021;29;20115;-82
2021/10/08 04:20:10;;;;;;;5.90;3.80;;;;;;;;;;4901102;29;20039;-81
2021/10/08 04:22:35;;;;;;;6.13;3.72;;;;;;;;;;4920649;29;20091;-82
2021/10/08 04:25:01;;;;;;;5.57;3.38;;;;;;;;;;4903864;29;20032;-82
2021/10/08 04:27:26;;;;;;;4.32;3.90;;;;;;;;;;4919941;29;20035;-82
2021/10/08 04:29:52;;;;;;;4.63;3.75;;;;;;;;;;4902298;29;20036;-82
2021/10/08 04:32:17;;;;;;;7.97;4.28;;;;;;;;;;4919210;29;20115;-81
2021/10/08 04:34:43;;;;;;;5.22;4.38;;;;;;;;;;4919321;29;20122;-82
2021/10/08 04:37:08;;;;;;;4.35;3.63;;;;;;;;;;4903671;29;20072;-82
2021/10/08 04:39:34;;;;;;;6.05;4.10;;;;;;;;;;4904422;29;20024;-82
2021/10/08 04:41:59;;;;;;;8.00;4.90;;;;;;;;;;4920120;29;20516;-82
2021/10/08 04:44:25;;;;;;;9.05;4.70;;;;;;;;;;4918771;29;20035;-82
2021/10/08 04:46:50;;;;;;;9.07;5.10;;;;;;;;;;4913218;29;20111;-82
2021/10/08 04:49:16;;;;;;;6.60;4.68;;;;;;;;;;4920616;29;20028;-82
2021/10/08 04:51:43;;;;;;;6.53;4.78;;;;;;;;;;4936934;29;20028;-82
2021/10/08 04:54:09;;;;;;;6.53;4.95;;;;;;;;;;4920637;29;20051;-82
2021/10/08 04:56:35;;;;;;;6.57;4.97;;;;;;;;;;4908543;29;20032;-82
2021/10/08 04:59:01;;;;;;;6.22;5.57;;;;;;;;;;4931644;29;20032;-82
2021/10/08 05:01:30;;;;;;;7.40;5.43;;;;;;;;;;4912361;29;20519;-82
2021/10/08 05:03:56;;;;;;;8.23;5.15;;;;;;;;;;4908560;29;20400;-82
2021/10/08 05:06:21;;;;;;;6.80;5.93;;;;;;;;;;4920068;29;20042;-82
2021/10/08 05:08:47;;;;;;;9.95;5.70;;;;;;;;;;4936196;29;20064;-82
2021/10/08 13:45:33;;;;;;;21.38;7.50;;;;;;;;;;5657963;23;20089;-81
2021/10/08 13:47:58;;;;;;;9.93;7.10;;;;;;;;;;4953014;29;20063;-80
2021/10/08 17:37:25;;;;;;;7.05;5.45;;;;;;;;;;5646238;23;20126;-82
2021/10/08 17:39:50;;;;;;;7.18;5.45;;;;;;;;;;4979391;28;20655;-83
2021/10/08 17:42:15;;;;;;;8.95;5.30;;;;;;;;;;4964803;28;20106;-82
2021/10/08 17:44:41;;;;;;;11.75;5.60;;;;;;;;;;4959418;28;20530;-82
2021/10/08 17:47:07;;;;;;;7.90;5.40;;;;;;;;;;4962797;28;20029;-82
2021/10/08 17:49:34;;;;;;;9.77;5.70;;;;;;;;;;4964148;28;20027;-83
2021/10/08 17:52:00;;;;;;;8.70;6.20;;;;;;;;;;4977813;28;20391;-82
2021/10/08 17:54:25;;;;;;;7.95;7.15;;;;;;;;;;4958451;28;20058;-82
2021/10/08 17:56:51;;;;;;;10.70;7.50;;;;;;;;;;4981082;28;20414;-83
2021/10/08 17:59:17;;;;;;;9.65;6.68;;;;;;;;;;4963967;28;20491;-82
2021/10/08 18:01:42;;;;;;;12.05;7.35;;;;;;;;;;4982593;28;20030;-82
2021/10/08 18:04:10;;;;;;;12.40;6.97;;;;;;;;;;4958221;28;20086;-80
2021/10/08 18:06:38;;;;;;;9.38;6.70;;;;;;;;;;4987535;28;20029;-82
2021/10/08 18:09:05;;;;;;;7.22;6.53;;;;;;;;;;4968578;28;20027;-83
2021/10/08 18:11:32;;;;;;;10.27;6.75;;;;;;;;;;5218067;23;20041;-83
2021/10/08 18:14:04;;;;;;;11.45;6.88;;;;;;;;;;4956173;28;20039;-82
2021/10/08 18:16:39;;;;;;;8.25;7.25;;;;;;;;;;4971742;28;20109;-83
2021/10/08 18:19:26;;;;;;;9.38;7.07;;;;;;;;;;4972113;28;20065;-83
2021/10/08 18:22:00;;;;;;;9.73;7.38;;;;;;;;;;4976548;28;20039;-83
2021/10/08 18:24:30;;;;;;;8.48;6.75;;;;;;;;;;4974000;28;20082;-83
2021/10/08 18:26:59;;;;;;;10.20;7.00;;;;;;;;;;4958014;28;20094;-82
2021/10/08 18:31:58;;;;;;;8.00;6.95;;;;;;;;;;4975431;28;20038;-83
2021/10/08 18:34:24;;;;;;;12.85;7.45;;;;;;;;;;4933588;29;20063;-83
2021/10/08 18:36:52;;;;;;;10.07;7.55;;;;;;;;;;4939558;29;20039;-83
2021/10/08 18:39:19;;;;;;;8.10;6.97;;;;;;;;;;4963971;29;20039;-83
2021/10/08 18:41:51;;;;;;;9.98;7.38;;;;;;;;;;4924004;29;20099;-82
2021/10/08 18:44:18;;;;;;;9.63;7.40;;;;;;;;;;4940669;29;20019;-83
2021/10/08 18:46:47;;;;;;;10.93;7.22;;;;;;;;;;4952431;29;20047;-83
2021/10/08 18:49:16;;;;;;;;;;;;;;;;;;4954609;28;20059;-83
2021/10/08 18:51:43;;;;;;;8.73;7.38;;;;;;;;;;4956148;29;19925;-82
2021/10/08 18:54:10;;;;;;;10.13;7.38;;;;;;;;;;4958045;28;20019;-82
2021/10/08 18:56:37;;;;;;;8.50;7.60;;;;;;;;;;4957472;29;20055;-82
2021/10/08 18:59:05;;;;;;;10.38;8.00;;;;;;;;;;4961077;28;20031;-83
2021/10/08 19:01:44;;;;;;;8.70;7.78;;;;;;;;;;4965225;29;20034;-83
2021/10/08 19:04:16;;;;;;;10.57;7.80;;;;;;;;;;4961304;29;20051;-83
2021/10/08 19:06:47;;;;;;;9.25;7.75;;;;;;;;;;4958891;29;20031;-82
2021/10/08 19:09:33;;;;;;;9.63;7.95;;;;;;;;;;4947305;29;20066;-82
2021/10/08 19:12:33;;;;;;;8.93;7.80;;;;;;;;;;4958854;29;20110;-82
2021/10/08 19:15:18;;;;;;;13.48;8.07;;;;;;;;;;4965072;29;20071;-82
2021/10/08 19:18:08;;;;;;;11.05;7.90;;;;;;;;;;4946001;29;20024;-83
2021/10/08 19:20:45;;;;;;;12.27;8.10;;;;;;;;;;4961440;29;20031;-83
2021/10/08 19:23:31;;;;;;;8.70;7.80;;;;;;;;;;4948097;29;20038;-82
2021/10/08 19:26:22;;;;;;;12.65;8.70;;;;;;;;;;4945476;29;20024;-83
2021/10/08 19:29:15;;;;;;;10.45;7.75;;;;;;;;;;4969171;29;20035;-83
2021/10/08 19:31:41;;;;;;;10.00;8.52;;;;;;;;;;4969645;29;20055;-83
2021/10/08 19:34:47;;;;;;;10.15;8.20;;;;;;;;;;4960723;29;20070;-83
2021/10/08 19:38:09;;;;;;;9.05;8.15;;;;;;;;;;4954751;29;20071;-84
2021/10/08 19:41:20;;;;;;;9.20;7.43;;;;;;;;;;4968416;29;20107;-83
2021/10/08 19:44:30;;;;;;;10.60;7.93;;;;;;;;;;4977839;28;20023;-83
2021/10/08 19:47:56;;;;;;;9.02;6.88;;;;;;;;;;4937311;29;20034;-84
2021/10/08 19:54:01;;;;;;;8.55;7.10;;;;;;;;;;4959423;29;20020;-82
2021/10/08 19:57:03;;;;;;;8.48;7.53;;;;;;;;;;4969493;29;20035;-83
2021/10/08 19:59:58;;;;;;;7.97;7.15;;;;;;;;;;4963435;29;20039;-82
2021/10/08 20:02:46;;;;;;;9.27;7.35;;;;;;;;;;4964126;29;20024;-83
2021/10/08 20:05:45;;;;;;;11.18;7.78;;;;;;;;;;4929438;29;20046;-83
2021/10/08 20:13:48;;;;;;;9.73;8.10;;;;;;;;;;4967541;29;20054;-83
2021/10/08 20:16:22;;;;;;;14.48;8.57;;;;;;;;;;4932980;29;20493;-83
2021/10/08 20:18:50;;;;;;;9.57;8.07;;;;;;;;;;4939692;29;20019;-82
2021/10/08 20:21:19;;;;;;;10.30;7.75;;;;;;;;;;4958784;29;20416;-83
2021/10/08 20:23:47;;;;;;;10.65;8.70;;;;;;;;;;4936578;29;20051;-82
2021/10/08 20:26:13;;;;;;;13.35;9.02;;;;;;;;;;4955084;29;20478;-82
2021/10/08 20:28:40;;;;;;;12.55;9.20;;;;;;;;;;4962263;29;20035;-83
2021/10/08 20:31:08;;;;;;;11.27;9.13;;;;;;;;;;4943000;29;20035;-83
2021/10/08 20:33:36;;;;;;;12.20;8.82;;;;;;;;;;4911118;29;20028;-82
2021/10/08 20:36:03;;;;;;;9.65;8.02;;;;;;;;;;4943475;29;20027;-82
2021/10/08 20:38:31;;;;;;;13.07;8.30;;;;;;;;;;4956697;29;20023;-82
2021/10/08 20:41:03;;;;;;;11.02;8.05;;;;;;;;;;4962727;29;20016;-83
2021/10/08 20:43:35;;;;;;;10.65;8.00;;;;;;;;;;4969415;28;20058;-83
2021/10/08 20:46:02;;;;;;;10.95;8.52;;;;;;;;;;4924881;29;20066;-82
2021/10/08 20:48:30;;;;;;;10.00;8.73;;;;;;;;;;4954041;29;20023;-82
2021/10/08 20:51:07;;;;;;;11.45;8.98;;;;;;;;;;4954915;29;20049;-83
2021/10/08 20:53:55;;;;;;;12.10;8.70;;;;;;;;;;4966941;29;20023;-82
2021/10/08 20:56:29;;;;;;;9.13;7.68;;;;;;;;;;4954454;29;20041;-83
2021/10/08 20:58:58;;;;;;;9.93;8.27;;;;;;;;;;4939307;29;20019;-82
2021/10/08 21:01:23;;;;;;;9.07;8.18;;;;;;;;;;4944533;29;20035;-83
2021/10/08 21:03:49;;;;;;;11.43;8.77;;;;;;;;;;4951079;28;20138;-81
2021/10/08 21:06:14;;;;;;;11.57;9.50;;;;;;;;;;4946924;29;20472;-81
2021/10/08 21:08:40;;;;;;;10.07;8.73;;;;;;;;;;4929800;29;20487;-81
2021/10/08 21:11:05;;;;;;;12.35;9.13;;;;;;;;;;4927890;29;20110;-82
2021/10/08 21:13:31;;;;;;;10.25;8.70;;;;;;;;;;4940914;29;20052;-82
2021/10/08 21:15:57;;;;;;;9.07;7.88;;;;;;;;;;4928670;29;20105;-82
2021/10/08 21:18:22;;;;;;;10.60;9.27;;;;;;;;;;4960796;29;20046;-82
2021/10/08 21:20:50;;;;;;;10.50;8.52;;;;;;;;;;4960266;29;20110;-81
2021/10/08 21:23:19;;;;;;;9.65;8.18;;;;;;;;;;4944220;29;20103;-82
2021/10/08 21:25:45;;;;;;;9.88;8.10;;;;;;;;;;4943519;29;20094;-82
2021/10/08 21:28:13;;;;;;;10.48;8.15;;;;;;;;;;4960205;29;20027;-81
2021/10/08 21:30:50;;;;;;;11.90;8.77;;;;;;;;;;4950661;29;20031;-81
2021/10/08 21:33:18;;;;;;;10.85;8.65;;;;;;;;;;4923351;29;20023;-82
2021/10/08 21:35:52;;;;;;;12.25;8.70;;;;;;;;;;4923081;29;20030;-81
2021/10/08 21:38:27;;;;;;;12.30;8.27;;;;;;;;;;4924866;29;20087;-82
2021/10/08 21:41:00;;;;;;;9.93;7.93;;;;;;;;;;4941933;29;20403;-81
2021/10/08 21:43:42;;;;;;;15.30;8.32;;;;;;;;;;4942116;29;20027;-82
2021/10/08 21:46:11;;;;;;;9.77;8.43;;;;;;;;;;4959904;29;20074;-82
2021/10/08 21:48:37;;;;;;;11.43;9.68;;;;;;;;;;4953570;28;20409;-82
2021/10/08 21:51:06;;;;;;;12.75;8.82;;;;;;;;;;4959430;29;20023;-82
2021/10/08 21:53:32;;;;;;;9.82;8.65;;;;;;;;;;4942022;29;20112;-81
2021/10/08 21:55:57;;;;;;;10.93;9.35;;;;;;;;;;4942361;29;20027;-82
2021/10/08 21:58:23;;;;;;;11.73;9.25;;;;;;;;;;4952635;29;20046;-82
2021/10/08 22:01:17;;;;;;;11.07;9.98;;;;;;;;;;4956650;29;20027;-82
2021/10/08 22:03:42;;;;;;;14.75;10.18;;;;;;;;;;4941659;29;20030;-82
2021/10/08 22:06:08;;;;;;;11.35;10.13;;;;;;;;;;4949519;29;20484;-82
2021/10/08 22:08:34;;;;;;;12.20;10.90;;;;;;;;;;4940185;29;20027;-82
2021/10/08 22:11:00;;;;;;;12.60;10.35;;;;;;;;;;4922166;29;20027;-82
2021/10/08 22:13:26;;;;;;;10.98;9.73;;;;;;;;;;4955192;29;20047;-82
2021/10/08 22:15:51;;;;;;;11.48;10.00;;;;;;;;;;4959224;29;20034;-82
2021/10/08 22:18:23;;;;;;;12.00;10.25;;;;;;;;;;4961151;29;20484;-82
2021/10/08 22:20:50;;;;;;;10.40;9.40;;;;;;;;;;4930180;29;20166;-82
2021/10/08 22:23:40;;;;;;;13.77;10.57;;;;;;;;;;4964776;29;20037;-83
2021/10/08 22:26:22;;;;;;;11.35;10.02;;;;;;;;;;4961891;29;20023;-82
2021/10/08 22:34:17;;;;;;;11.02;9.80;;;;;;;;;;4945432;29;20026;-82
2021/10/08 22:36:42;;;;;;;11.27;10.18;;;;;;;;;;4926623;29;20412;-82
2021/10/08 22:39:08;;;;;;;15.18;11.00;;;;;;;;;;4944469;29;20027;-82
2021/10/08 22:41:33;;;;;;;16.42;11.30;;;;;;;;;;4945244;29;20031;-82
2021/10/08 22:43:59;;;;;;;15.13;11.70;;;;;;;;;;4962792;29;20032;-82
2021/10/08 22:46:25;;;;;;;12.93;11.50;;;;;;;;;;4945900;29;20042;-82
2021/10/08 22:48:51;;;;;;;14.02;11.77;;;;;;;;;;4951478;29;20539;-82
2021/10/08 22:51:17;;;;;;;14.50;11.43;;;;;;;;;;4927085;29;20066;-82
2021/10/08 22:53:44;;;;;;;12.25;10.95;;;;;;;;;;4927010;29;20020;-83
2021/10/08 22:56:10;;;;;;;12.18;10.88;;;;;;;;;;4943996;29;20031;-83
2021/10/08 22:58:35;;;;;;;15.98;11.23;;;;;;;;;;4944389;29;20050;-82
2021/10/08 23:01:01;;;;;;;12.77;11.07;;;;;;;;;;4955987;29;20475;-83
2021/10/08 23:03:26;;;;;;;12.48;10.60;;;;;;;;;;4961455;29;20054;-83
2021/10/08 23:06:09;;;;;;;12.18;10.70;;;;;;;;;;4943226;29;20488;-82
2021/10/08 23:08:42;;;;;;;15.43;10.50;;;;;;;;;;4943687;29;20023;-83
2021/10/08 23:11:14;;;;;;;13.07;10.68;;;;;;;;;;4959898;29;20027;-82
2021/10/08 23:16:23;;;;;;;14.18;10.52;;;;;;;;;;4941131;29;20110;-82
2021/10/08 23:18:49;;;;;;;12.18;10.90;;;;;;;;;;4923525;29;20455;-82
2021/10/08 23:21:14;;;;;;;11.68;9.55;;;;;;;;;;4924039;29;20476;-82
2021/10/08 23:23:39;;;;;;;12.70;10.20;;;;;;;;;;4924577;29;20399;-82
2021/10/08 23:26:05;;;;;;;15.13;10.50;;;;;;;;;;4925791;29;20102;-82
2021/10/08 23:28:30;;;;;;;13.07;11.68;;;;;;;;;;4930995;29;20042;-82
2021/10/08 23:30:56;;;;;;;12.85;11.55;;;;;;;;;;4942424;29;20058;-82
2021/10/08 23:33:22;;;;;;;12.02;10.68;;;;;;;;;;4959132;29;20047;-82
2021/10/08 23:35:48;;;;;;;13.15;11.43;;;;;;;;;;4939991;29;20071;-83
2021/10/08 23:38:13;;;;;;;12.20;10.95;;;;;;;;;;4941391;29;20309;-81
2021/10/08 23:40:39;;;;;;;12.10;9.52;;;;;;;;;;4941523;29;20035;-82
2021/10/08 23:43:05;;;;;;;11.43;9.30;;;;;;;;;;4948724;29;20107;-82
2021/10/08 23:45:31;;;;;;;11.48;9.18;;;;;;;;;;4940900;29;20476;-82
2021/10/08 23:47:56;;;;;;;11.20;8.73;;;;;;;;;;4940741;29;20110;-82
2021/10/08 23:50:21;;;;;;;9.85;8.75;;;;;;;;;;4941405;29;20031;-82
2021/10/08 23:52:47;;;;;;;11.18;8.73;;;;;;;;;;4941551;29;20034;-82
2021/10/08 23:55:12;;;;;;;11.02;9.65;;;;;;;;;;4945283;29;20054;-82
2021/10/08 23:57:38;;;;;;;10.13;8.35;;;;;;;;;;4941581;29;20028;-83
